sensor_id;sensor_type;location;lat;lon;timestamp;P1;durP1;ratioP1;P2;durP2;ratioP2
9465;SDS011;4771;48.726;9.006;2024-01-15T00:00:21;15.97;;;8.47;;
9465;SDS011;4771;48.726;9.006;2024-01-15T00:02:48;15.70;;;8.13;;
9465;SDS011;4771;48.726;9.006;2024-01-15T00:05:15;15.10;;;8.40;;
9465;SDS011;4771;48.726;9.006;2024-01-15T00:07:42;17.03;;;8.10;;
9465;SDS011;4771;48.726;9.006;2024-01-15T00:10:09;16.90;;;8.27;;
9465;SDS011;4771;48.726;9.006;2024-01-15T00:12:36;14.47;;;7.93;;
9465;SDS011;4771;48.726;9.006;2024-01-15T00:15:03;17.03;;;8.57;;
9465;SDS011;4771;48.726;9.006;2024-01-15T00:17:31;17.93;;;8.60;;
9465;SDS011;4771;48.726;9.006;2024-01-15T00:19:58;20.60;;;8.93;;
9465;SDS011;4771;48.726;9.006;2024-01-15T00:22:25;17.10;;;8.20;;
9465;SDS011;4771;48.726;9.006;2024-01-15T00:24:52;15.53;;;7.83;;
9465;SDS011;4771;48.726;9.006;2024-01-15T00:27:19;16.07;;;8.00;;
9465;SDS011;4771;48.726;9.006;2024-01-15T00:29:46;16.53;;;7.80;;
9465;SDS011;4771;48.726;9.006;2024-01-15T00:32:13;16.70;;;7.53;;
9465;SDS011;4771;48.726;9.006;2024-01-15T00:34:41;15.17;;;8.20;;
9465;SDS011;4771;48.726;9.006;2024-01-15T00:37:08;17.67;;;8.17;;
9465;SDS011;4771;48.726;9.006;2024-01-15T00:39:35;14.97;;;7.67;;
9465;SDS011;4771;48.726;9.006;2024-01-15T00:42:02;16.93;;;7.87;;
9465;SDS011;4771;48.726;9.006;2024-01-15T00:44:29;18.80;;;8.47;;
9465;SDS011;4771;48.726;9.006;2024-01-15T00:46:56;16.37;;;7.37;;
9465;SDS011;4771;48.726;9.006;2024-01-15T00:49:23;15.17;;;7.73;;
9465;SDS011;4771;48.726;9.006;2024-01-15T00:51:51;18.07;;;8.33;;
9465;SDS011;4771;48.726;9.006;2024-01-15T00:54:18;15.03;;;7.63;;
9465;SDS011;4771;48.726;9.006;2024-01-15T00:56:44;15.33;;;7.47;;
9465;SDS011;4771;48.726;9.006;2024-01-15T00:59:11;16.70;;;7.03;;
9465;SDS011;4771;48.726;9.006;2024-01-15T01:01:40;16.20;;;7.67;;
9465;SDS011;4771;48.726;9.006;2024-01-15T01:04:08;17.17;;;8.27;;
9465;SDS011;4771;48.726;9.006;2024-01-15T01:06:34;17.90;;;7.03;;
9465;SDS011;4771;48.726;9.006;2024-01-15T01:09:03;18.17;;;8.20;;
9465;SDS011;4771;48.726;9.006;2024-01-15T01:11:30;18.30;;;8.20;;
9465;SDS011;4771;48.726;9.006;2024-01-15T01:13:57;18.47;;;8.23;;
9465;SDS011;4771;48.726;9.006;2024-01-15T01:16:23;15.03;;;7.63;;
9465;SDS011;4771;48.726;9.006;2024-01-15T01:18:50;13.00;;;6.87;;
9465;SDS011;4771;48.726;9.006;2024-01-15T01:21:17;14.63;;;7.50;;
9465;SDS011;4771;48.726;9.006;2024-01-15T01:23:44;16.57;;;7.60;;
9465;SDS011;4771;48.726;9.006;2024-01-15T01:26:13;20.33;;;8.27;;
9465;SDS011;4771;48.726;9.006;2024-01-15T01:28:41;16.30;;;6.77;;
9465;SDS011;4771;48.726;9.006;2024-01-15T01:31:08;15.37;;;7.73;;
9465;SDS011;4771;48.726;9.006;2024-01-15T01:33:34;14.73;;;7.47;;
9465;SDS011;4771;48.726;9.006;2024-01-15T01:36:02;19.37;;;7.47;;
9465;SDS011;4771;48.726;9.006;2024-01-15T01:38:33;16.27;;;7.43;;
9465;SDS011;4771;48.726;9.006;2024-01-15T01:41:00;18.50;;;8.10;;
9465;SDS011;4771;48.726;9.006;2024-01-15T01:43:29;15.40;;;7.67;;
9465;SDS011;4771;48.726;9.006;2024-01-15T01:45:56;11.93;;;6.67;;
9465;SDS011;4771;48.726;9.006;2024-01-15T01:48:24;17.67;;;7.87;;
9465;SDS011;4771;48.726;9.006;2024-01-15T01:50:52;13.80;;;7.17;;
9465;SDS011;4771;48.726;9.006;2024-01-15T01:53:19;15.77;;;7.40;;
9465;SDS011;4771;48.726;9.006;2024-01-15T01:55:46;16.70;;;7.77;;
9465;SDS011;4771;48.726;9.006;2024-01-15T01:58:14;17.00;;;7.90;;
9465;SDS011;4771;48.726;9.006;2024-01-15T02:00:43;16.07;;;8.50;;
9465;SDS011;4771;48.726;9.006;2024-01-15T02:03:10;14.17;;;7.20;;
9465;SDS011;4771;48.726;9.006;2024-01-15T02:05:37;13.53;;;6.77;;
9465;SDS011;4771;48.726;9.006;2024-01-15T02:08:06;16.83;;;7.73;;
9465;SDS011;4771;48.726;9.006;2024-01-15T02:10:33;14.37;;;6.70;;
9465;SDS011;4771;48.726;9.006;2024-01-15T02:13:00;14.33;;;7.30;;
9465;SDS011;4771;48.726;9.006;2024-01-15T02:15:26;15.43;;;7.67;;
9465;SDS011;4771;48.726;9.006;2024-01-15T02:17:58;12.83;;;7.40;;
9465;SDS011;4771;48.726;9.006;2024-01-15T02:20:26;16.17;;;7.90;;
9465;SDS011;4771;48.726;9.006;2024-01-15T02:22:53;13.67;;;6.80;;
9465;SDS011;4771;48.726;9.006;2024-01-15T02:25:21;12.20;;;6.60;;
9465;SDS011;4771;48.726;9.006;2024-01-15T02:27:48;16.30;;;7.70;;
9465;SDS011;4771;48.726;9.006;2024-01-15T02:30:15;12.93;;;6.90;;
9465;SDS011;4771;48.726;9.006;2024-01-15T02:32:43;15.30;;;7.60;;
9465;SDS011;4771;48.726;9.006;2024-01-15T02:35:10;16.30;;;7.33;;
9465;SDS011;4771;48.726;9.006;2024-01-15T02:37:36;15.33;;;7.17;;
9465;SDS011;4771;48.726;9.006;2024-01-15T02:40:03;14.67;;;7.17;;
9465;SDS011;4771;48.726;9.006;2024-01-15T02:42:32;13.83;;;7.23;;
9465;SDS011;4771;48.726;9.006;2024-01-15T02:44:59;14.67;;;6.83;;
9465;SDS011;4771;48.726;9.006;2024-01-15T02:47:26;13.00;;;7.57;;
9465;SDS011;4771;48.726;9.006;2024-01-15T02:49:53;14.93;;;7.53;;
9465;SDS011;4771;48.726;9.006;2024-01-15T02:52:19;15.10;;;7.33;;
9465;SDS011;4771;48.726;9.006;2024-01-15T02:54:47;13.43;;;7.23;;
9465;SDS011;4771;48.726;9.006;2024-01-15T02:57:13;13.80;;;6.80;;
9465;SDS011;4771;48.726;9.006;2024-01-15T02:59:42;14.77;;;7.33;;
9465;SDS011;4771;48.726;9.006;2024-01-15T03:02:08;15.03;;;6.93;;
9465;SDS011;4771;48.726;9.006;2024-01-15T03:04:35;14.00;;;7.43;;
9465;SDS011;4771;48.726;9.006;2024-01-15T03:07:02;16.17;;;7.23;;
9465;SDS011;4771;48.726;9.006;2024-01-15T03:09:29;14.27;;;7.17;;
9465;SDS011;4771;48.726;9.006;2024-01-15T03:11:56;14.80;;;7.07;;
9465;SDS011;4771;48.726;9.006;2024-01-15T03:14:23;13.67;;;7.07;;
9465;SDS011;4771;48.726;9.006;2024-01-15T03:16:52;13.83;;;6.83;;
9465;SDS011;4771;48.726;9.006;2024-01-15T03:19:20;14.07;;;7.30;;
9465;SDS011;4771;48.726;9.006;2024-01-15T03:21:46;15.97;;;6.97;;
9465;SDS011;4771;48.726;9.006;2024-01-15T03:24:13;17.20;;;7.53;;
9465;SDS011;4771;48.726;9.006;2024-01-15T03:26:40;14.40;;;7.03;;
9465;SDS011;4771;48.726;9.006;2024-01-15T03:29:07;15.20;;;7.03;;
9465;SDS011;4771;48.726;9.006;2024-01-15T03:31:34;15.50;;;7.40;;
9465;SDS011;4771;48.726;9.006;2024-01-15T03:34:02;14.73;;;7.10;;
9465;SDS011;4771;48.726;9.006;2024-01-15T03:36:29;14.17;;;7.07;;
9465;SDS011;4771;48.726;9.006;2024-01-15T03:38:56;13.40;;;6.53;;
9465;SDS011;4771;48.726;9.006;2024-01-15T03:41:23;13.63;;;6.50;;
9465;SDS011;4771;48.726;9.006;2024-01-15T03:43:50;12.03;;;6.87;;
9465;SDS011;4771;48.726;9.006;2024-01-15T03:46:16;12.07;;;6.57;;
9465;SDS011;4771;48.726;9.006;2024-01-15T03:48:43;12.03;;;6.37;;
9465;SDS011;4771;48.726;9.006;2024-01-15T03:51:11;11.07;;;5.67;;
9465;SDS011;4771;48.726;9.006;2024-01-15T03:53:38;14.67;;;7.20;;
9465;SDS011;4771;48.726;9.006;2024-01-15T03:56:05;14.50;;;6.13;;
9465;SDS011;4771;48.726;9.006;2024-01-15T03:58:32;11.87;;;5.97;;
9465;SDS011;4771;48.726;9.006;2024-01-15T04:00:59;16.53;;;6.87;;
9465;SDS011;4771;48.726;9.006;2024-01-15T04:03:26;13.57;;;6.13;;
9465;SDS011;4771;48.726;9.006;2024-01-15T04:05:53;13.27;;;7.07;;
9465;SDS011;4771;48.726;9.006;2024-01-15T04:08:21;13.57;;;6.67;;
9465;SDS011;4771;48.726;9.006;2024-01-15T04:10:48;14.60;;;6.80;;
9465;SDS011;4771;48.726;9.006;2024-01-15T04:13:15;14.33;;;6.53;;
9465;SDS011;4771;48.726;9.006;2024-01-15T04:15:41;13.97;;;7.13;;
9465;SDS011;4771;48.726;9.006;2024-01-15T04:18:08;15.20;;;6.93;;
9465;SDS011;4771;48.726;9.006;2024-01-15T04:20:35;12.50;;;6.53;;
9465;SDS011;4771;48.726;9.006;2024-01-15T04:23:02;14.70;;;7.57;;
9465;SDS011;4771;48.726;9.006;2024-01-15T04:25:31;13.63;;;7.13;;
9465;SDS011;4771;48.726;9.006;2024-01-15T04:27:57;13.23;;;6.80;;
9465;SDS011;4771;48.726;9.006;2024-01-15T04:30:24;15.37;;;7.37;;
9465;SDS011;4771;48.726;9.006;2024-01-15T04:32:51;12.67;;;6.70;;
9465;SDS011;4771;48.726;9.006;2024-01-15T04:35:18;12.37;;;6.37;;
9465;SDS011;4771;48.726;9.006;2024-01-15T04:37:45;16.23;;;6.87;;
9465;SDS011;4771;48.726;9.006;2024-01-15T04:40:12;11.40;;;6.60;;
9465;SDS011;4771;48.726;9.006;2024-01-15T04:42:41;13.63;;;6.83;;
9465;SDS011;4771;48.726;9.006;2024-01-15T04:45:08;10.90;;;5.97;;
9465;SDS011;4771;48.726;9.006;2024-01-15T04:47:35;12.27;;;6.63;;
9465;SDS011;4771;48.726;9.006;2024-01-15T04:50:03;14.40;;;6.90;;
9465;SDS011;4771;48.726;9.006;2024-01-15T04:52:30;13.87;;;6.67;;
9465;SDS011;4771;48.726;9.006;2024-01-15T04:54:57;13.30;;;6.70;;
9465;SDS011;4771;48.726;9.006;2024-01-15T04:57:24;13.67;;;7.07;;
9465;SDS011;4771;48.726;9.006;2024-01-15T04:59:52;13.50;;;6.80;;
9465;SDS011;4771;48.726;9.006;2024-01-15T05:02:19;12.93;;;6.80;;
9465;SDS011;4771;48.726;9.006;2024-01-15T05:04:46;13.93;;;6.63;;
9465;SDS011;4771;48.726;9.006;2024-01-15T05:07:13;14.93;;;7.00;;
9465;SDS011;4771;48.726;9.006;2024-01-15T05:09:40;12.23;;;6.50;;
9465;SDS011;4771;48.726;9.006;2024-01-15T05:12:07;11.80;;;6.27;;
9465;SDS011;4771;48.726;9.006;2024-01-15T05:14:34;13.03;;;7.20;;
9465;SDS011;4771;48.726;9.006;2024-01-15T05:17:02;14.07;;;7.17;;
9465;SDS011;4771;48.726;9.006;2024-01-15T05:19:29;12.83;;;6.63;;
9465;SDS011;4771;48.726;9.006;2024-01-15T05:21:56;13.73;;;6.80;;
9465;SDS011;4771;48.726;9.006;2024-01-15T05:24:23;14.07;;;7.40;;
9465;SDS011;4771;48.726;9.006;2024-01-15T05:26:51;10.03;;;6.27;;
9465;SDS011;4771;48.726;9.006;2024-01-15T05:29:18;10.73;;;6.03;;
9465;SDS011;4771;48.726;9.006;2024-01-15T05:31:45;13.53;;;6.77;;
9465;SDS011;4771;48.726;9.006;2024-01-15T05:34:13;12.77;;;6.73;;
9465;SDS011;4771;48.726;9.006;2024-01-15T05:36:40;13.43;;;6.33;;
9465;SDS011;4771;48.726;9.006;2024-01-15T05:39:07;10.87;;;6.67;;
9465;SDS011;4771;48.726;9.006;2024-01-15T05:41:34;13.03;;;6.60;;
9465;SDS011;4771;48.726;9.006;2024-01-15T05:44:01;11.60;;;6.50;;
9465;SDS011;4771;48.726;9.006;2024-01-15T05:46:27;15.17;;;6.73;;
9465;SDS011;4771;48.726;9.006;2024-01-15T05:48:54;13.57;;;7.23;;
9465;SDS011;4771;48.726;9.006;2024-01-15T05:51:22;16.97;;;8.07;;
9465;SDS011;4771;48.726;9.006;2024-01-15T05:53:49;16.63;;;7.50;;
9465;SDS011;4771;48.726;9.006;2024-01-15T05:56:16;12.23;;;6.93;;
9465;SDS011;4771;48.726;9.006;2024-01-15T05:58:43;16.00;;;7.83;;
9465;SDS011;4771;48.726;9.006;2024-01-15T06:01:10;12.93;;;7.17;;
9465;SDS011;4771;48.726;9.006;2024-01-15T06:03:37;13.27;;;6.70;;
9465;SDS011;4771;48.726;9.006;2024-01-15T06:06:04;12.27;;;6.93;;
9465;SDS011;4771;48.726;9.006;2024-01-15T06:08:32;12.40;;;6.93;;
9465;SDS011;4771;48.726;9.006;2024-01-15T06:10:59;12.47;;;6.93;;
9465;SDS011;4771;48.726;9.006;2024-01-15T06:13:26;10.63;;;6.30;;
9465;SDS011;4771;48.726;9.006;2024-01-15T06:15:53;13.67;;;7.20;;
9465;SDS011;4771;48.726;9.006;2024-01-15T06:18:19;10.83;;;6.23;;
9465;SDS011;4771;48.726;9.006;2024-01-15T06:20:46;12.37;;;6.53;;
9465;SDS011;4771;48.726;9.006;2024-01-15T06:23:13;11.33;;;6.10;;
9465;SDS011;4771;48.726;9.006;2024-01-15T06:25:41;13.10;;;7.20;;
9465;SDS011;4771;48.726;9.006;2024-01-15T06:28:08;12.37;;;6.70;;
9465;SDS011;4771;48.726;9.006;2024-01-15T06:30:35;11.50;;;5.70;;
9465;SDS011;4771;48.726;9.006;2024-01-15T06:33:02;11.70;;;6.00;;
9465;SDS011;4771;48.726;9.006;2024-01-15T06:35:29;12.57;;;6.67;;
9465;SDS011;4771;48.726;9.006;2024-01-15T06:37:56;10.93;;;6.10;;
9465;SDS011;4771;48.726;9.006;2024-01-15T06:40:23;10.23;;;5.97;;
9465;SDS011;4771;48.726;9.006;2024-01-15T06:42:51;10.60;;;6.37;;
9465;SDS011;4771;48.726;9.006;2024-01-15T06:45:18;11.43;;;6.10;;
9465;SDS011;4771;48.726;9.006;2024-01-15T06:47:45;13.13;;;6.17;;
9465;SDS011;4771;48.726;9.006;2024-01-15T06:50:11;16.63;;;6.87;;
9465;SDS011;4771;48.726;9.006;2024-01-15T06:52:38;11.17;;;6.60;;
9465;SDS011;4771;48.726;9.006;2024-01-15T06:55:06;14.43;;;7.27;;
9465;SDS011;4771;48.726;9.006;2024-01-15T06:57:33;11.97;;;6.50;;
9465;SDS011;4771;48.726;9.006;2024-01-15T07:00:01;14.50;;;6.83;;
9465;SDS011;4771;48.726;9.006;2024-01-15T07:02:32;13.60;;;6.93;;
9465;SDS011;4771;48.726;9.006;2024-01-15T07:04:59;12.13;;;6.80;;
9465;SDS011;4771;48.726;9.006;2024-01-15T07:07:26;12.60;;;6.87;;
9465;SDS011;4771;48.726;9.006;2024-01-15T07:09:54;13.97;;;7.47;;
9465;SDS011;4771;48.726;9.006;2024-01-15T07:12:21;13.77;;;7.13;;
9465;SDS011;4771;48.726;9.006;2024-01-15T07:14:48;13.17;;;7.37;;
9465;SDS011;4771;48.726;9.006;2024-01-15T07:17:17;14.40;;;6.47;;
9465;SDS011;4771;48.726;9.006;2024-01-15T07:19:44;13.60;;;7.10;;
9465;SDS011;4771;48.726;9.006;2024-01-15T07:22:11;12.47;;;7.37;;
9465;SDS011;4771;48.726;9.006;2024-01-15T07:24:38;13.00;;;7.53;;
9465;SDS011;4771;48.726;9.006;2024-01-15T07:27:05;13.97;;;7.43;;
9465;SDS011;4771;48.726;9.006;2024-01-15T07:29:33;16.40;;;8.23;;
9465;SDS011;4771;48.726;9.006;2024-01-15T07:32:02;14.10;;;8.13;;
9465;SDS011;4771;48.726;9.006;2024-01-15T07:34:31;13.90;;;7.93;;
9465;SDS011;4771;48.726;9.006;2024-01-15T07:36:58;15.30;;;7.10;;
9465;SDS011;4771;48.726;9.006;2024-01-15T07:39:25;14.87;;;7.33;;
9465;SDS011;4771;48.726;9.006;2024-01-15T07:41:53;14.00;;;7.23;;
9465;SDS011;4771;48.726;9.006;2024-01-15T07:44:20;16.37;;;7.70;;
9465;SDS011;4771;48.726;9.006;2024-01-15T07:46:47;22.57;;;12.87;;
9465;SDS011;4771;48.726;9.006;2024-01-15T07:49:14;18.63;;;10.50;;
9465;SDS011;4771;48.726;9.006;2024-01-15T07:51:43;17.17;;;8.13;;
9465;SDS011;4771;48.726;9.006;2024-01-15T07:54:10;14.37;;;7.60;;
9465;SDS011;4771;48.726;9.006;2024-01-15T07:59:19;13.57;;;6.67;;
9465;SDS011;4771;48.726;9.006;2024-01-15T08:01:46;13.00;;;6.70;;
9465;SDS011;4771;48.726;9.006;2024-01-15T08:04:13;13.40;;;7.57;;
9465;SDS011;4771;48.726;9.006;2024-01-15T08:06:40;16.03;;;8.33;;
9465;SDS011;4771;48.726;9.006;2024-01-15T08:09:08;10.77;;;6.43;;
9465;SDS011;4771;48.726;9.006;2024-01-15T08:11:35;11.40;;;7.10;;
9465;SDS011;4771;48.726;9.006;2024-01-15T08:14:05;14.03;;;8.30;;
9465;SDS011;4771;48.726;9.006;2024-01-15T08:16:32;16.90;;;6.87;;
9465;SDS011;4771;48.726;9.006;2024-01-15T08:18:59;10.40;;;5.27;;
9465;SDS011;4771;48.726;9.006;2024-01-15T08:21:26;10.77;;;5.23;;
9465;SDS011;4771;48.726;9.006;2024-01-15T08:23:54;10.07;;;5.87;;
9465;SDS011;4771;48.726;9.006;2024-01-15T08:26:23;6.37;;;4.50;;
9465;SDS011;4771;48.726;9.006;2024-01-15T08:28:50;9.27;;;4.73;;
9465;SDS011;4771;48.726;9.006;2024-01-15T08:31:17;8.40;;;4.10;;
9465;SDS011;4771;48.726;9.006;2024-01-15T08:33:44;8.03;;;4.63;;
9465;SDS011;4771;48.726;9.006;2024-01-15T08:36:11;7.33;;;4.37;;
9465;SDS011;4771;48.726;9.006;2024-01-15T08:38:38;7.37;;;4.27;;
9465;SDS011;4771;48.726;9.006;2024-01-15T08:41:05;10.37;;;4.70;;
9465;SDS011;4771;48.726;9.006;2024-01-15T08:43:32;7.27;;;4.20;;
9465;SDS011;4771;48.726;9.006;2024-01-15T08:45:59;8.00;;;4.77;;
9465;SDS011;4771;48.726;9.006;2024-01-15T08:48:27;6.17;;;4.00;;
9465;SDS011;4771;48.726;9.006;2024-01-15T08:50:53;9.70;;;4.73;;
9465;SDS011;4771;48.726;9.006;2024-01-15T08:53:21;6.63;;;4.20;;
9465;SDS011;4771;48.726;9.006;2024-01-15T08:55:48;8.40;;;4.20;;
9465;SDS011;4771;48.726;9.006;2024-01-15T08:58:15;8.80;;;4.67;;
9465;SDS011;4771;48.726;9.006;2024-01-15T09:00:44;8.40;;;4.30;;
9465;SDS011;4771;48.726;9.006;2024-01-15T09:03:11;8.47;;;4.10;;
9465;SDS011;4771;48.726;9.006;2024-01-15T09:05:38;7.37;;;4.20;;
9465;SDS011;4771;48.726;9.006;2024-01-15T09:08:05;7.73;;;4.03;;
9465;SDS011;4771;48.726;9.006;2024-01-15T09:10:32;9.03;;;4.63;;
9465;SDS011;4771;48.726;9.006;2024-01-15T09:12:59;8.03;;;4.50;;
9465;SDS011;4771;48.726;9.006;2024-01-15T09:15:26;6.97;;;4.10;;
9465;SDS011;4771;48.726;9.006;2024-01-15T09:17:54;7.17;;;3.93;;
9465;SDS011;4771;48.726;9.006;2024-01-15T09:20:22;6.83;;;4.10;;
9465;SDS011;4771;48.726;9.006;2024-01-15T09:22:50;8.20;;;3.93;;
9465;SDS011;4771;48.726;9.006;2024-01-15T09:25:17;8.10;;;4.47;;
9465;SDS011;4771;48.726;9.006;2024-01-15T09:27:45;7.43;;;4.03;;
9465;SDS011;4771;48.726;9.006;2024-01-15T09:30:12;6.50;;;4.07;;
9465;SDS011;4771;48.726;9.006;2024-01-15T09:32:39;8.33;;;3.73;;
9465;SDS011;4771;48.726;9.006;2024-01-15T09:35:07;7.27;;;3.97;;
9465;SDS011;4771;48.726;9.006;2024-01-15T09:37:35;6.83;;;4.03;;
9465;SDS011;4771;48.726;9.006;2024-01-15T09:40:02;7.07;;;4.00;;
9465;SDS011;4771;48.726;9.006;2024-01-15T09:42:29;9.20;;;4.00;;
9465;SDS011;4771;48.726;9.006;2024-01-15T09:44:57;9.67;;;3.77;;
9465;SDS011;4771;48.726;9.006;2024-01-15T09:47:24;5.30;;;3.50;;
9465;SDS011;4771;48.726;9.006;2024-01-15T09:49:51;7.50;;;4.00;;
9465;SDS011;4771;48.726;9.006;2024-01-15T09:52:19;5.27;;;3.67;;
9465;SDS011;4771;48.726;9.006;2024-01-15T09:54:47;6.17;;;3.87;;
9465;SDS011;4771;48.726;9.006;2024-01-15T09:57:16;8.03;;;4.03;;
9465;SDS011;4771;48.726;9.006;2024-01-15T09:59:43;7.57;;;4.40;;
9465;SDS011;4771;48.726;9.006;2024-01-15T10:02:11;6.80;;;3.53;;
9465;SDS011;4771;48.726;9.006;2024-01-15T10:04:42;6.27;;;3.90;;
9465;SDS011;4771;48.726;9.006;2024-01-15T10:07:09;7.27;;;4.10;;
9465;SDS011;4771;48.726;9.006;2024-01-15T10:09:42;8.13;;;4.00;;
9465;SDS011;4771;48.726;9.006;2024-01-15T10:12:09;6.37;;;4.00;;
9465;SDS011;4771;48.726;9.006;2024-01-15T10:14:37;7.50;;;4.20;;
9465;SDS011;4771;48.726;9.006;2024-01-15T10:17:11;7.93;;;3.67;;
9465;SDS011;4771;48.726;9.006;2024-01-15T10:19:39;8.23;;;3.40;;
9465;SDS011;4771;48.726;9.006;2024-01-15T10:22:07;6.87;;;4.03;;
9465;SDS011;4771;48.726;9.006;2024-01-15T10:24:34;5.83;;;4.00;;
9465;SDS011;4771;48.726;9.006;2024-01-15T10:27:06;8.77;;;4.27;;
9465;SDS011;4771;48.726;9.006;2024-01-15T10:29:34;5.80;;;3.73;;
9465;SDS011;4771;48.726;9.006;2024-01-15T10:32:01;7.87;;;4.00;;
9465;SDS011;4771;48.726;9.006;2024-01-15T10:34:30;7.37;;;4.10;;
9465;SDS011;4771;48.726;9.006;2024-01-15T10:36:56;6.60;;;3.73;;
9465;SDS011;4771;48.726;9.006;2024-01-15T10:39:23;7.80;;;4.80;;
9465;SDS011;4771;48.726;9.006;2024-01-15T10:41:51;7.63;;;3.77;;
9465;SDS011;4771;48.726;9.006;2024-01-15T10:44:19;6.20;;;3.70;;
9465;SDS011;4771;48.726;9.006;2024-01-15T10:46:46;5.97;;;3.30;;
9465;SDS011;4771;48.726;9.006;2024-01-15T10:49:13;6.37;;;3.90;;
9465;SDS011;4771;48.726;9.006;2024-01-15T10:51:41;6.10;;;4.03;;
9465;SDS011;4771;48.726;9.006;2024-01-15T10:54:09;6.43;;;3.60;;
9465;SDS011;4771;48.726;9.006;2024-01-15T10:56:38;5.77;;;3.60;;
9465;SDS011;4771;48.726;9.006;2024-01-15T10:59:06;5.47;;;3.80;;
9465;SDS011;4771;48.726;9.006;2024-01-15T11:01:37;5.40;;;3.53;;
9465;SDS011;4771;48.726;9.006;2024-01-15T11:04:03;7.20;;;4.07;;
9465;SDS011;4771;48.726;9.006;2024-01-15T11:06:40;7.77;;;4.20;;
9465;SDS011;4771;48.726;9.006;2024-01-15T11:09:09;7.43;;;3.77;;
9465;SDS011;4771;48.726;9.006;2024-01-15T11:11:39;7.23;;;4.50;;
9465;SDS011;4771;48.726;9.006;2024-01-15T11:14:07;10.23;;;4.77;;
9465;SDS011;4771;48.726;9.006;2024-01-15T11:19:22;8.27;;;5.23;;
9465;SDS011;4771;48.726;9.006;2024-01-15T11:21:49;9.90;;;5.50;;
9465;SDS011;4771;48.726;9.006;2024-01-15T11:27:02;9.67;;;5.30;;
9465;SDS011;4771;48.726;9.006;2024-01-15T11:29:30;7.90;;;4.90;;
9465;SDS011;4771;48.726;9.006;2024-01-15T11:32:01;8.83;;;4.70;;
9465;SDS011;4771;48.726;9.006;2024-01-15T11:37:27;7.60;;;4.87;;
9465;SDS011;4771;48.726;9.006;2024-01-15T11:39:55;9.67;;;4.63;;
9465;SDS011;4771;48.726;9.006;2024-01-15T11:42:22;9.23;;;5.05;;
9465;SDS011;4771;48.726;9.006;2024-01-15T11:44:49;8.80;;;4.83;;
9465;SDS011;4771;48.726;9.006;2024-01-15T11:47:21;9.37;;;4.40;;
9465;SDS011;4771;48.726;9.006;2024-01-15T11:50:12;7.23;;;4.20;;
9465;SDS011;4771;48.726;9.006;2024-01-15T11:52:39;6.63;;;4.03;;
9465;SDS011;4771;48.726;9.006;2024-01-15T11:55:11;7.30;;;4.40;;
9465;SDS011;4771;48.726;9.006;2024-01-15T11:57:45;7.40;;;4.67;;
9465;SDS011;4771;48.726;9.006;2024-01-15T12:00:13;7.50;;;4.70;;
9465;SDS011;4771;48.726;9.006;2024-01-15T12:02:43;7.97;;;4.47;;
9465;SDS011;4771;48.726;9.006;2024-01-15T12:05:10;8.03;;;4.73;;
9465;SDS011;4771;48.726;9.006;2024-01-15T12:07:39;8.03;;;4.63;;
9465;SDS011;4771;48.726;9.006;2024-01-15T12:10:09;9.53;;;5.33;;
9465;SDS011;4771;48.726;9.006;2024-01-15T12:12:44;7.23;;;5.17;;
9465;SDS011;4771;48.726;9.006;2024-01-15T12:15:19;7.60;;;4.57;;
9465;SDS011;4771;48.726;9.006;2024-01-15T12:17:48;9.47;;;5.20;;
9465;SDS011;4771;48.726;9.006;2024-01-15T12:20:15;8.53;;;5.40;;
9465;SDS011;4771;48.726;9.006;2024-01-15T12:22:43;8.40;;;5.47;;
9465;SDS011;4771;48.726;9.006;2024-01-15T12:25:11;7.77;;;4.93;;
9465;SDS011;4771;48.726;9.006;2024-01-15T12:27:37;9.10;;;4.90;;
9465;SDS011;4771;48.726;9.006;2024-01-15T12:30:05;9.97;;;5.33;;
9465;SDS011;4771;48.726;9.006;2024-01-15T12:32:34;14.23;;;5.70;;
9465;SDS011;4771;48.726;9.006;2024-01-15T12:35:02;10.90;;;5.97;;
9465;SDS011;4771;48.726;9.006;2024-01-15T12:37:30;10.50;;;5.30;;
9465;SDS011;4771;48.726;9.006;2024-01-15T12:39:58;9.77;;;5.43;;
9465;SDS011;4771;48.726;9.006;2024-01-15T12:42:25;11.07;;;5.43;;
9465;SDS011;4771;48.726;9.006;2024-01-15T12:44:54;9.43;;;5.47;;
9465;SDS011;4771;48.726;9.006;2024-01-15T12:47:22;7.10;;;4.53;;
9465;SDS011;4771;48.726;9.006;2024-01-15T12:49:51;9.33;;;5.13;;
9465;SDS011;4771;48.726;9.006;2024-01-15T12:52:21;10.77;;;5.23;;
9465;SDS011;4771;48.726;9.006;2024-01-15T12:54:48;8.43;;;4.90;;
9465;SDS011;4771;48.726;9.006;2024-01-15T12:57:15;7.73;;;5.07;;
9465;SDS011;4771;48.726;9.006;2024-01-15T12:59:42;9.13;;;4.60;;
9465;SDS011;4771;48.726;9.006;2024-01-15T13:02:10;9.77;;;5.03;;
9465;SDS011;4771;48.726;9.006;2024-01-15T13:04:37;9.90;;;5.77;;
9465;SDS011;4771;48.726;9.006;2024-01-15T13:07:05;9.23;;;4.77;;
9465;SDS011;4771;48.726;9.006;2024-01-15T13:09:33;7.27;;;4.30;;
9465;SDS011;4771;48.726;9.006;2024-01-15T13:12:00;9.37;;;4.13;;
9465;SDS011;4771;48.726;9.006;2024-01-15T13:14:28;8.30;;;4.67;;
9465;SDS011;4771;48.726;9.006;2024-01-15T13:16:55;6.00;;;4.30;;
9465;SDS011;4771;48.726;9.006;2024-01-15T13:19:23;9.17;;;4.47;;
9465;SDS011;4771;48.726;9.006;2024-01-15T13:21:50;6.63;;;4.20;;
9465;SDS011;4771;48.726;9.006;2024-01-15T13:24:18;10.13;;;4.07;;
9465;SDS011;4771;48.726;9.006;2024-01-15T13:26:46;5.77;;;3.90;;
9465;SDS011;4771;48.726;9.006;2024-01-15T13:29:13;6.77;;;4.10;;
9465;SDS011;4771;48.726;9.006;2024-01-15T13:31:40;6.03;;;4.07;;
9465;SDS011;4771;48.726;9.006;2024-01-15T13:34:07;7.07;;;4.10;;
9465;SDS011;4771;48.726;9.006;2024-01-15T13:36:34;7.70;;;4.30;;
9465;SDS011;4771;48.726;9.006;2024-01-15T13:39:04;8.40;;;4.23;;
9465;SDS011;4771;48.726;9.006;2024-01-15T13:41:33;6.03;;;4.23;;
9465;SDS011;4771;48.726;9.006;2024-01-15T13:44:02;7.63;;;4.50;;
9465;SDS011;4771;48.726;9.006;2024-01-15T13:46:29;6.93;;;4.20;;
9465;SDS011;4771;48.726;9.006;2024-01-15T13:48:56;5.17;;;3.70;;
9465;SDS011;4771;48.726;9.006;2024-01-15T13:51:22;7.60;;;3.83;;
9465;SDS011;4771;48.726;9.006;2024-01-15T13:53:49;5.73;;;3.77;;
9465;SDS011;4771;48.726;9.006;2024-01-15T13:56:16;6.37;;;3.50;;
9465;SDS011;4771;48.726;9.006;2024-01-15T13:58:43;5.83;;;3.40;;
9465;SDS011;4771;48.726;9.006;2024-01-15T14:01:11;3.80;;;3.20;;
9465;SDS011;4771;48.726;9.006;2024-01-15T14:03:38;4.77;;;3.43;;
9465;SDS011;4771;48.726;9.006;2024-01-15T14:06:05;7.27;;;3.30;;
9465;SDS011;4771;48.726;9.006;2024-01-15T14:08:34;5.30;;;3.40;;
9465;SDS011;4771;48.726;9.006;2024-01-15T14:11:01;5.23;;;3.60;;
9465;SDS011;4771;48.726;9.006;2024-01-15T14:13:28;6.17;;;3.50;;
9465;SDS011;4771;48.726;9.006;2024-01-15T14:15:55;3.93;;;3.43;;
9465;SDS011;4771;48.726;9.006;2024-01-15T14:18:23;7.03;;;3.23;;
9465;SDS011;4771;48.726;9.006;2024-01-15T14:20:50;5.77;;;3.70;;
9465;SDS011;4771;48.726;9.006;2024-01-15T14:23:18;5.13;;;3.40;;
9465;SDS011;4771;48.726;9.006;2024-01-15T14:25:45;6.00;;;3.63;;
9465;SDS011;4771;48.726;9.006;2024-01-15T14:28:12;5.33;;;3.40;;
9465;SDS011;4771;48.726;9.006;2024-01-15T14:30:39;5.13;;;3.23;;
9465;SDS011;4771;48.726;9.006;2024-01-15T14:33:05;4.63;;;3.60;;
9465;SDS011;4771;48.726;9.006;2024-01-15T14:35:34;3.47;;;2.77;;
9465;SDS011;4771;48.726;9.006;2024-01-15T14:38:01;3.57;;;2.90;;
9465;SDS011;4771;48.726;9.006;2024-01-15T14:40:28;4.47;;;2.97;;
9465;SDS011;4771;48.726;9.006;2024-01-15T14:42:55;3.17;;;2.67;;
9465;SDS011;4771;48.726;9.006;2024-01-15T14:45:22;4.03;;;2.97;;
9465;SDS011;4771;48.726;9.006;2024-01-15T14:47:49;5.00;;;4.50;;
9465;SDS011;4771;48.726;9.006;2024-01-15T14:50:15;6.57;;;3.10;;
9465;SDS011;4771;48.726;9.006;2024-01-15T14:52:44;3.90;;;3.07;;
9465;SDS011;4771;48.726;9.006;2024-01-15T14:55:11;3.47;;;2.90;;
9465;SDS011;4771;48.726;9.006;2024-01-15T14:57:38;3.47;;;2.90;;
9465;SDS011;4771;48.726;9.006;2024-01-15T15:00:05;4.60;;;3.00;;
9465;SDS011;4771;48.726;9.006;2024-01-15T15:02:34;5.20;;;3.40;;
9465;SDS011;4771;48.726;9.006;2024-01-15T15:05:02;5.20;;;3.87;;
9465;SDS011;4771;48.726;9.006;2024-01-15T15:07:29;5.43;;;3.40;;
9465;SDS011;4771;48.726;9.006;2024-01-15T15:09:57;4.00;;;3.60;;
9465;SDS011;4771;48.726;9.006;2024-01-15T15:12:24;5.07;;;4.00;;
9465;SDS011;4771;48.726;9.006;2024-01-15T15:14:52;5.07;;;3.90;;
9465;SDS011;4771;48.726;9.006;2024-01-15T15:17:19;4.63;;;3.50;;
9465;SDS011;4771;48.726;9.006;2024-01-15T15:19:46;6.20;;;4.37;;